Oaks, Louisiana
Current Conditions -  °F | °C
As of 2:35 AM on Thursday 18 Dec 2014 (Local Time) from KMNE Reporting Station
Light Rain Light Rain  
Wind Chill: 39°   Ceiling: 600
Heat Index: 45°   Visibility: 10mi
Dew Point: 41°   Wind: 10mph
Humidity: 87%   Direction: 80°E
Pressure: 30.16"   Gusts: NA
Location:  32.9128°N, 93.0286°W
Report Text: KMNE 180835Z AUTO 08009KT 10SM -RA BKN006 OVC032 07/05 A3016 RMK AO2
Loading
Personal Weather Stations






























Interactive Weather Map New forecast layout! Learn more

10-Day Weather Forecast

Advertisements
Track Severe Weather on mobile